Time;durP1;ratioP1;P1;durP2;ratioP2;P2;SDS_P1;SDS_P2;PMS_P1;PMS_P2;Temp;Humidity;BMP_temperature;BMP_pressure;BME280_temperature;BME280_humidity;BME280_pressure;Samples;Min_cycle;Max_cycle;Signal;HPM_P1;HPM_P2
2022/07/09 00:00:24;;;;;;;2.20;1.23;;;25.40;45.10;;;;;;6145759;23;20385;-81
2022/07/09 00:03:03;;;;;;;1.97;1.23;;;25.40;45.10;;;;;;6119540;23;20392;-82
2022/07/09 00:08:55;;;;;;;1.50;1.27;;;25.40;45.10;;;;;;6146307;23;20344;-81
2022/07/09 00:12:17;;;;;;;1.30;1.20;;;25.40;45.10;;;;;;6146369;23;20369;-82
2022/07/09 00:14:48;;;;;;;1.63;0.97;;;25.40;45.10;;;;;;6121574;23;20408;-81
2022/07/09 00:23:47;;;;;;;1.50;1.20;;;25.40;45.10;;;;;;6146398;23;20424;-82
2022/07/09 00:26:18;;;;;;;1.83;1.10;;;25.40;45.10;;;;;;6120432;23;20382;-82
2022/07/09 00:29:20;;;;;;;1.70;1.10;;;25.40;45.20;;;;;;6145989;23;20377;-79
2022/07/09 00:35:07;;;;;;;1.30;1.17;;;25.40;45.20;;;;;;6057720;23;20358;-81
2022/07/09 00:37:33;;;;;;;1.63;1.40;;;25.40;45.20;;;;;;6033871;23;20439;-81
2022/07/09 00:40:29;;;;;;;1.33;1.17;;;25.40;45.20;;;;;;6034203;23;20388;-81
2022/07/09 00:42:59;;;;;;;1.40;1.13;;;25.40;45.10;;;;;;6033112;23;20387;-81
2022/07/09 00:45:33;;;;;;;1.30;1.20;;;25.40;45.10;;;;;;6056531;23;20407;-81
2022/07/09 00:48:36;;;;;;;3.10;1.27;;;25.40;45.10;;;;;;6057551;23;20392;-81
2022/07/09 00:51:19;;;;;;;1.00;0.80;;;25.40;45.10;;;;;;6033127;23;20387;-81
2022/07/09 00:53:46;;;;;;;1.20;1.00;;;25.40;45.10;;;;;;6056234;23;20414;-81
2022/07/09 01:02:58;;;;;;;1.50;1.30;;;25.40;45.10;;;;;;6056302;23;20359;-81
2022/07/09 01:05:35;;;;;;;1.30;1.17;;;25.40;45.10;;;;;;6056449;23;20383;-81
2022/07/09 01:11:41;;;;;;;1.50;1.00;;;25.40;45.20;;;;;;6143035;23;20368;-79
2022/07/09 01:14:13;;;;;;;1.60;1.27;;;25.40;45.20;;;;;;6116861;23;20385;-79
2022/07/09 01:16:39;;;;;;;1.30;1.10;;;25.40;45.30;;;;;;6140914;23;20388;-79
2022/07/09 01:19:27;;;;;;;1.07;0.97;;;25.40;45.20;;;;;;6088065;23;20441;-79
2022/07/09 01:21:53;;;;;;;1.20;1.00;;;25.40;45.20;;;;;;6111754;23;20397;-79
2022/07/09 01:24:23;;;;;;;1.63;1.20;;;25.40;45.20;;;;;;6113524;23;20449;-79
2022/07/09 01:30:26;;;;;;;1.30;1.10;;;25.40;45.20;;;;;;6111930;23;20354;-79
2022/07/09 01:33:31;;;;;;;1.47;1.37;;;25.40;45.20;;;;;;6111345;23;20366;-80
2022/07/09 01:36:38;;;;;;;1.13;1.00;;;25.40;45.20;;;;;;6112210;23;20381;-79
2022/07/09 01:39:49;;;;;;;1.50;1.20;;;25.40;45.20;;;;;;6108732;23;20393;-79
2022/07/09 01:42:56;;;;;;;1.07;0.93;;;25.40;45.20;;;;;;6110054;23;20894;-79
2022/07/09 01:46:01;;;;;;;1.20;1.00;;;25.40;45.20;;;;;;6110011;23;20393;-79
2022/07/09 01:49:07;;;;;;;1.50;1.20;;;25.40;45.20;;;;;;6108405;23;20909;-80
2022/07/09 01:52:10;;;;;;;1.27;1.10;;;25.40;45.20;;;;;;6111349;23;20358;-79
2022/07/09 01:55:13;;;;;;;1.47;1.27;;;25.40;45.20;;;;;;6109689;23;20404;-80
2022/07/09 01:58:17;;;;;;;1.17;1.07;;;25.40;45.20;;;;;;6109751;23;20389;-81
2022/07/09 02:01:28;;;;;;;1.30;1.20;;;25.40;45.20;;;;;;6109935;23;20384;-79
2022/07/09 02:04:32;;;;;;;1.70;1.00;;;25.40;45.20;;;;;;6109198;23;20422;-79
2022/07/09 02:07:41;;;;;;;1.30;1.07;;;25.40;45.20;;;;;;6109044;23;20389;-80
2022/07/09 02:10:47;;;;;;;1.40;1.30;;;25.40;45.20;;;;;;6110177;23;20386;-79
2022/07/09 02:13:51;;;;;;;1.30;1.10;;;25.40;45.30;;;;;;6110022;23;20390;-80
2022/07/09 02:16:54;;;;;;;1.07;0.90;;;25.40;45.30;;;;;;6110826;23;20421;-81
2022/07/09 02:19:57;;;;;;;1.60;1.20;;;25.40;45.30;;;;;;6111524;23;20398;-80
2022/07/09 02:23:01;;;;;;;1.60;1.20;;;25.40;45.30;;;;;;6111504;23;20380;-80
2022/07/09 02:26:04;;;;;;;1.40;1.00;;;25.40;45.30;;;;;;6111392;23;20402;-82
2022/07/09 02:29:10;;;;;;;1.30;1.17;;;25.40;45.30;;;;;;6111977;23;20393;-81
2022/07/09 02:32:14;;;;;;;1.20;1.10;;;25.40;45.30;;;;;;6111628;23;20389;-80
2022/07/09 02:35:26;;;;;;;1.20;1.03;;;25.40;45.30;;;;;;6114395;23;20369;-79
2022/07/09 02:38:30;;;;;;;1.20;1.07;;;25.40;45.30;;;;;;6112221;23;20389;-79
2022/07/09 02:41:40;;;;;;;1.10;1.00;;;25.40;45.30;;;;;;6113121;23;20369;-80
2022/07/09 02:44:43;;;;;;;1.63;1.10;;;25.40;45.30;;;;;;6111870;23;20495;-79
2022/07/09 02:47:47;;;;;;;1.50;1.10;;;25.40;45.40;;;;;;6113738;23;20440;-80
2022/07/09 02:50:51;;;;;;;1.07;0.97;;;25.40;45.30;;;;;;6113679;23;20454;-79
2022/07/09 02:53:54;;;;;;;1.30;1.00;;;25.40;45.40;;;;;;6112543;23;20393;-83
2022/07/09 02:57:04;;;;;;;1.73;1.00;;;25.40;45.30;;;;;;6113934;23;20405;-82
2022/07/09 03:00:10;;;;;;;1.00;0.87;;;25.40;45.40;;;;;;6112863;23;20412;-80
2022/07/09 03:03:17;;;;;;;1.10;0.90;;;25.40;45.40;;;;;;6112294;23;20385;-79
2022/07/09 03:06:20;;;;;;;1.10;1.00;;;25.40;45.40;;;;;;6112073;23;20409;-79
2022/07/09 03:09:24;;;;;;;1.53;1.10;;;25.40;45.30;;;;;;6111397;23;20382;-81
2022/07/09 03:12:27;;;;;;;3.40;1.20;;;25.40;45.40;;;;;;6112577;23;20421;-81
2022/07/09 03:15:34;;;;;;;1.17;1.00;;;25.40;45.40;;;;;;6113179;23;20433;-80
2022/07/09 03:18:48;;;;;;;1.20;0.97;;;25.40;45.40;;;;;;6111814;23;20406;-80
2022/07/09 03:21:56;;;;;;;1.73;1.10;;;25.30;45.30;;;;;;6112038;23;20409;-79
2022/07/09 03:24:59;;;;;;;1.50;1.00;;;25.40;45.40;;;;;;6113734;23;20900;-79
2022/07/09 03:28:03;;;;;;;1.30;0.90;;;25.30;45.40;;;;;;6112733;23;20379;-80
2022/07/09 03:31:06;;;;;;;1.00;0.90;;;25.40;45.50;;;;;;6111125;23;20393;-81
2022/07/09 03:34:10;;;;;;;1.00;0.80;;;25.30;45.40;;;;;;6112861;23;20366;-79
2022/07/09 03:37:13;;;;;;;1.97;1.10;;;25.30;45.30;;;;;;6111829;23;20392;-79
2022/07/09 03:40:17;;;;;;;1.37;1.10;;;25.30;45.40;;;;;;6111990;23;20373;-79
2022/07/09 03:43:20;;;;;;;1.93;0.93;;;25.30;45.40;;;;;;6111754;23;20384;-79
2022/07/09 03:46:24;;;;;;;1.17;1.07;;;25.30;45.40;;;;;;6111595;23;20622;-79
2022/07/09 03:49:27;;;;;;;1.20;0.90;;;25.30;45.40;;;;;;6112283;23;20378;-79
2022/07/09 03:52:33;;;;;;;1.20;0.80;;;25.30;45.40;;;;;;6111261;23;20476;-79
2022/07/09 03:55:36;;;;;;;1.60;0.93;;;25.30;45.40;;;;;;6112335;23;20393;-81
2022/07/09 03:58:59;;;;;;;1.10;0.90;;;25.30;45.40;;;;;;6116088;23;20433;-81
2022/07/09 04:02:04;;;;;;;1.10;0.93;;;25.30;45.40;;;;;;6115364;23;20390;-81
2022/07/09 04:05:08;;;;;;;1.17;0.83;;;25.30;45.40;;;;;;6115843;23;20410;-81
2022/07/09 04:08:17;;;;;;;1.10;0.90;;;25.30;45.40;;;;;;6114484;23;20377;-81
2022/07/09 04:11:23;;;;;;;1.00;0.90;;;25.30;45.40;;;;;;6117093;23;20396;-82
2022/07/09 04:14:27;;;;;;;1.00;0.80;;;25.30;45.40;;;;;;6115970;23;20449;-81
2022/07/09 04:17:31;;;;;;;1.87;0.90;;;25.30;45.40;;;;;;6119354;23;20471;-81
2022/07/09 04:20:34;;;;;;;1.10;0.97;;;25.30;45.40;;;;;;6147211;23;20440;-81
2022/07/09 04:27:17;;;;;;;1.20;1.00;;;25.30;45.40;;;;;;6147595;23;20431;-81
2022/07/09 04:30:20;;;;;;;1.50;1.03;;;25.30;45.50;;;;;;6147788;23;20376;-82
2022/07/09 04:33:26;;;;;;;0.90;0.80;;;25.30;45.40;;;;;;6122031;23;20372;-82
2022/07/09 04:36:31;;;;;;;1.30;1.20;;;25.30;45.40;;;;;;6122111;23;20376;-81
2022/07/09 04:39:34;;;;;;;1.20;1.10;;;25.30;45.40;;;;;;6119956;23;20453;-79
2022/07/09 04:42:37;;;;;;;1.10;0.97;;;25.30;45.40;;;;;;6116157;23;20369;-79
2022/07/09 04:45:04;;;;;;;1.10;1.00;;;25.30;45.30;;;;;;6141609;23;20484;-79
2022/07/09 04:47:36;;;;;;;1.10;1.00;;;25.30;45.30;;;;;;6117115;23;20416;-79
2022/07/09 04:50:01;;;;;;;1.20;0.90;;;25.40;45.40;;;;;;6143232;23;20354;-80
2022/07/09 04:52:28;;;;;;;0.90;0.70;;;25.40;45.40;;;;;;6121629;23;20396;-81
2022/07/09 04:54:54;;;;;;;1.63;0.90;;;25.40;45.30;;;;;;6121470;23;20157;-82
2022/07/09 04:57:26;;;;;;;1.33;0.93;;;25.40;45.30;;;;;;6148322;23;20381;-82
2022/07/09 04:59:52;;;;;;;1.27;1.00;;;25.40;45.30;;;;;;6121920;23;20164;-82
2022/07/09 05:02:34;;;;;;;1.23;1.00;;;25.40;45.20;;;;;;6146472;23;20452;-81
2022/07/09 05:05:18;;;;;;;;;;;;;;;;;;;;;
2022/07/09 05:07:46;;;;;;;1.87;1.00;;;25.40;45.20;;;;;;6147973;23;20730;-80
2022/07/09 05:10:15;;;;;;;2.43;1.00;;;25.40;45.20;;;;;;6148279;23;20389;-81
2022/07/09 05:12:47;;;;;;;1.10;0.90;;;25.40;45.80;;;;;;6122250;23;20368;-81
2022/07/09 05:15:19;;;;;;;1.10;0.90;;;25.50;45.30;;;;;;6147408;23;20828;-81
2022/07/09 05:17:47;;;;;;;1.53;0.90;;;25.40;45.20;;;;;;6117631;23;20409;-81
2022/07/09 05:20:20;;;;;;;1.00;0.80;;;25.50;45.30;;;;;;6116900;23;20393;-81
2022/07/09 05:22:48;;;;;;;1.00;0.87;;;25.50;45.30;;;;;;6117740;23;20418;-80
2022/07/09 05:25:19;;;;;;;1.20;1.03;;;25.50;45.30;;;;;;6117162;23;20410;-80
2022/07/09 05:27:49;;;;;;;1.20;0.93;;;25.40;45.20;;;;;;6118798;23;20446;-80
2022/07/09 05:30:24;;;;;;;1.10;0.90;;;25.50;45.30;;;;;;6117733;23;20378;-80
2022/07/09 05:33:01;;;;;;;1.17;0.80;;;25.50;45.20;;;;;;6119283;23;20392;-80
2022/07/09 05:35:44;;;;;;;;;;;;;;;;;;;;;
2022/07/09 05:38:14;;;;;;;1.10;0.93;;;25.50;45.20;;;;;;6117844;23;20393;-80
2022/07/09 05:41:14;;;;;;;1.17;0.90;;;25.50;45.20;;;;;;6117152;23;20378;-81
2022/07/09 05:43:48;;;;;;;1.13;1.00;;;25.50;45.10;;;;;;6110403;23;20456;-80
2022/07/09 05:46:20;;;;;;;1.10;1.00;;;25.50;45.10;;;;;;6092772;23;20382;-79
2022/07/09 05:49:19;;;;;;;1.60;1.00;;;25.50;45.10;;;;;;6118071;23;20861;-80
2022/07/09 05:58:31;;;;;;;1.50;1.10;;;25.50;45.10;;;;;;6032901;23;20446;-79
2022/07/09 06:05:04;;;;;;;2.23;1.10;;;25.50;45.20;;;;;;5948791;24;20528;-80
2022/07/09 06:07:33;;;;;;;1.73;0.90;;;25.50;45.20;;;;;;5925077;24;20379;-81
2022/07/09 06:10:08;;;;;;;1.20;0.93;;;25.50;45.20;;;;;;5948211;24;20418;-80
2022/07/09 06:12:35;;;;;;;1.00;0.80;;;25.50;45.30;;;;;;5947217;24;20391;-80
2022/07/09 06:17:56;;;;;;;1.67;1.20;;;25.50;45.20;;;;;;5937949;24;20394;-79
2022/07/09 06:20:22;;;;;;;1.30;0.90;;;25.50;45.20;;;;;;5976441;24;20390;-80
2022/07/09 06:22:50;;;;;;;1.60;1.27;;;25.50;45.20;;;;;;5976402;24;20398;-80
2022/07/09 06:25:16;;;;;;;2.17;1.00;;;25.50;45.20;;;;;;5953053;24;20430;-81
2022/07/09 06:27:42;;;;;;;1.80;1.00;;;25.50;45.20;;;;;;5976407;24;20382;-81
2022/07/09 06:30:11;;;;;;;2.10;1.70;;;25.50;45.20;;;;;;5976166;24;20394;-82
2022/07/09 06:32:37;;;;;;;1.57;0.90;;;25.60;45.30;;;;;;6003606;23;20148;-81
2022/07/09 06:35:04;;;;;;;2.00;1.00;;;25.60;45.30;;;;;;6031729;23;20471;-82
2022/07/09 06:37:32;;;;;;;1.70;0.90;;;25.60;45.30;;;;;;6032329;23;20385;-82
2022/07/09 06:40:09;;;;;;;1.30;0.90;;;25.60;45.30;;;;;;6032255;23;20471;-81
2022/07/09 06:42:36;;;;;;;1.63;1.23;;;25.60;45.30;;;;;;6032759;23;20380;-81
2022/07/09 06:45:06;;;;;;;1.20;1.00;;;25.60;45.30;;;;;;6008388;23;20468;-82
2022/07/09 06:47:34;;;;;;;1.67;1.57;;;25.60;45.40;;;;;;6031943;23;20404;-81
2022/07/09 06:50:01;;;;;;;1.33;1.00;;;25.60;45.40;;;;;;6032120;23;20376;-80
2022/07/09 06:52:28;;;;;;;1.63;1.20;;;25.60;45.40;;;;;;6009102;23;20380;-80
2022/07/09 06:54:54;;;;;;;1.40;1.17;;;25.60;45.40;;;;;;6031570;23;20396;-80
2022/07/09 07:00:53;;;;;;;1.47;1.30;;;25.60;45.40;;;;;;6032623;23;20424;-81
2022/07/09 07:09:54;;;;;;;1.70;1.30;;;25.60;45.40;;;;;;6032114;23;20373;-80
2022/07/09 07:12:23;;;;;;;1.47;0.90;;;25.60;45.50;;;;;;6031079;23;20385;-81
2022/07/09 07:14:50;;;;;;;1.20;0.90;;;25.60;45.50;;;;;;6032151;23;20385;-81
2022/07/09 07:17:17;;;;;;;1.40;1.00;;;25.60;45.40;;;;;;6027674;23;20388;-81
2022/07/09 07:19:53;;;;;;;1.57;0.93;;;25.60;45.40;;;;;;6008148;23;20471;-81
2022/07/09 07:22:20;;;;;;;2.27;1.30;;;25.60;45.40;;;;;;6002670;24;20384;-81
2022/07/09 07:24:54;;;;;;;1.33;0.97;;;25.60;45.40;;;;;;6002767;24;21043;-81
2022/07/09 07:27:20;;;;;;;1.00;0.90;;;25.60;45.40;;;;;;6002667;24;20376;-82
2022/07/09 07:29:49;;;;;;;1.40;0.90;;;25.70;45.40;;;;;;5980096;24;20389;-81
2022/07/09 07:32:15;;;;;;;1.27;1.00;;;25.60;45.40;;;;;;6003178;24;20388;-82
2022/07/09 07:35:02;;;;;;;1.80;1.00;;;25.70;45.40;;;;;;6003978;24;20365;-81
2022/07/09 07:37:31;;;;;;;1.63;0.97;;;25.70;45.40;;;;;;6003532;24;20400;-80
2022/07/09 07:39:59;;;;;;;1.03;0.90;;;25.70;45.40;;;;;;5979948;24;20432;-81
2022/07/09 07:42:25;;;;;;;1.47;1.00;;;25.60;45.40;;;;;;6004032;24;20397;-80
2022/07/09 07:55:13;;;;;;;1.80;0.90;;;25.60;45.40;;;;;;5948339;24;20533;-81
2022/07/09 08:01:05;;;;;;;1.20;1.10;;;25.60;45.40;;;;;;5948747;24;20771;-81
2022/07/09 08:03:39;;;;;;;1.43;1.00;;;25.60;45.50;;;;;;5947543;24;20498;-81
2022/07/09 08:06:07;;;;;;;1.73;1.07;;;25.60;45.50;;;;;;5948374;24;20413;-81
2022/07/09 08:08:36;;;;;;;1.30;0.90;;;25.60;45.50;;;;;;5948009;24;20387;-79
2022/07/09 08:11:03;;;;;;;1.37;0.90;;;25.70;45.60;;;;;;5963583;23;20412;-81
2022/07/09 08:13:30;;;;;;;1.20;1.00;;;25.70;45.60;;;;;;6007958;23;20380;-80
2022/07/09 08:15:56;;;;;;;1.73;1.10;;;25.70;45.60;;;;;;6005952;23;20395;-79
2022/07/09 08:18:23;;;;;;;1.10;0.90;;;25.70;45.60;;;;;;6008496;23;20411;-79
2022/07/09 08:20:52;;;;;;;2.33;1.07;;;25.70;45.60;;;;;;6053342;23;20459;-79
2022/07/09 08:23:20;;;;;;;1.80;1.10;;;25.70;45.60;;;;;;6053167;23;20391;-79
2022/07/09 08:25:45;;;;;;;1.70;0.90;;;25.70;45.60;;;;;;6053396;23;20445;-79
2022/07/09 08:28:11;;;;;;;1.37;1.00;;;25.70;45.60;;;;;;6029886;23;20387;-79
2022/07/09 08:30:37;;;;;;;1.17;0.90;;;25.70;45.60;;;;;;6056473;23;20159;-81
2022/07/09 08:33:03;;;;;;;1.20;1.10;;;25.70;45.60;;;;;;6058671;23;20222;-81
2022/07/09 08:35:32;;;;;;;1.43;0.93;;;25.80;45.60;;;;;;6057054;23;20167;-81
2022/07/09 08:37:58;;;;;;;1.07;0.73;;;25.80;45.60;;;;;;6032395;23;20392;-80
2022/07/09 08:40:35;;;;;;;1.50;1.20;;;25.70;45.40;;;;;;6057655;23;20779;-80
2022/07/09 08:43:05;;;;;;;1.17;1.00;;;25.80;45.50;;;;;;6058296;23;20462;-80
2022/07/09 08:45:33;;;;;;;1.30;1.13;;;25.80;45.50;;;;;;6034684;23;20480;-82
2022/07/09 08:48:01;;;;;;;1.87;1.37;;;25.80;45.50;;;;;;6126873;23;20373;-81
2022/07/09 08:50:27;;;;;;;1.30;1.00;;;25.80;45.50;;;;;;6097040;23;20396;-82
2022/07/09 08:52:57;;;;;;;1.20;1.00;;;25.80;45.50;;;;;;6146904;23;20380;-82
2022/07/09 08:55:24;;;;;;;1.47;0.90;;;25.80;45.50;;;;;;6121935;23;20421;-81
2022/07/09 08:57:58;;;;;;;2.07;1.00;;;25.80;45.50;;;;;;6122006;23;20791;-81
2022/07/09 09:00:24;;;;;;;1.83;0.90;;;25.80;45.50;;;;;;6098401;23;20429;-81
2022/07/09 09:02:51;;;;;;;1.83;1.00;;;25.80;45.50;;;;;;6147002;23;20407;-81
2022/07/09 09:05:20;;;;;;;1.40;0.90;;;25.80;45.50;;;;;;6118022;23;20421;-79
2022/07/09 09:07:46;;;;;;;1.00;0.90;;;25.80;45.50;;;;;;6116607;23;20420;-79
2022/07/09 09:13:40;;;;;;;1.20;0.93;;;25.80;45.50;;;;;;6142687;23;20158;-79
2022/07/09 09:16:08;;;;;;;1.40;0.93;;;25.80;45.50;;;;;;6117010;23;20453;-79
2022/07/09 09:18:41;;;;;;;1.30;1.20;;;25.80;45.50;;;;;;6143118;23;20393;-79
2022/07/09 09:21:10;;;;;;;1.23;1.10;;;25.80;45.50;;;;;;6117659;23;20440;-79
2022/07/09 09:23:52;;;;;;;3.57;1.20;;;25.80;45.60;;;;;;6116879;23;20495;-79
2022/07/09 09:26:23;;;;;;;2.13;1.17;;;25.80;45.50;;;;;;6144592;23;20403;-79
2022/07/09 09:28:52;;;;;;;1.23;1.13;;;25.80;45.60;;;;;;6145590;23;20459;-79
2022/07/09 09:31:27;;;;;;;3.73;1.30;;;25.80;45.50;;;;;;6119533;23;20405;-79
2022/07/09 09:34:22;;;;;;;2.13;1.20;;;25.80;45.60;;;;;;6119190;23;20415;-80
2022/07/09 09:36:54;;;;;;;1.97;1.00;;;25.80;45.60;;;;;;6119743;23;20377;-79
2022/07/09 09:39:24;;;;;;;1.80;1.03;;;25.80;45.60;;;;;;6119841;23;20373;-79
2022/07/09 09:41:51;;;;;;;2.13;1.03;;;25.80;45.70;;;;;;6144951;23;20379;-80
2022/07/09 09:44:25;;;;;;;2.57;1.10;;;25.80;45.70;;;;;;6122429;23;20447;-81
2022/07/09 09:47:09;;;;;;;1.10;1.00;;;25.80;45.70;;;;;;6126092;23;20384;-81
2022/07/09 09:50:00;;;;;;;1.73;1.33;;;25.80;45.70;;;;;;6103123;23;20384;-81
2022/07/09 09:52:50;;;;;;;1.60;1.00;;;25.80;45.70;;;;;;6125516;23;20407;-82
2022/07/09 10:23:11;;;;;;;1.20;0.97;;;25.70;45.80;;;;;;5922426;24;20406;-81
2022/07/09 10:25:56;;;;;;;1.50;1.10;;;25.70;45.80;;;;;;5899524;24;20479;-82
2022/07/09 10:28:26;;;;;;;1.63;1.20;;;25.70;45.90;;;;;;5899105;24;20414;-80
2022/07/09 10:31:25;;;;;;;1.20;0.97;;;25.70;45.90;;;;;;5976679;24;20382;-80
2022/07/09 10:55:08;;;;;;;2.90;1.20;;;25.70;45.90;;;;;;6087958;23;20723;-83
2022/07/09 12:48:29;;;;;;;1.60;1.30;;;25.70;46.10;;;;;;5893570;24;20532;-83
2022/07/09 12:54:18;;;;;;;2.87;1.80;;;25.80;46.30;;;;;;6002732;23;20376;-83
2022/07/09 14:29:22;;;;;;;;;;;;;;;;;;;;;
2022/07/09 14:38:42;;;;;;;2.40;1.80;;;25.80;46.50;;;;;;5919700;24;21556;-83
2022/07/09 14:41:49;;;;;;;2.10;1.80;;;25.80;46.40;;;;;;5919680;24;20363;-84
2022/07/09 14:55:33;;;;;;;2.03;1.90;;;25.80;46.40;;;;;;5892092;24;20405;-82
2022/07/09 15:05:29;;;;;;;;;;;;;;;;;;;;;
2022/07/09 15:22:41;;;;;;;2.10;1.80;;;25.80;46.40;;;;;;5807779;24;20444;-82
2022/07/09 15:42:57;;;;;;;3.33;1.73;;;25.80;46.50;;;;;;5805607;24;20380;-80
2022/07/09 15:46:11;;;;;;;2.10;1.80;;;25.80;46.50;;;;;;5752560;25;20441;-80
2022/07/09 15:55:37;;;;;;;;;;;;;;;;;;;;;
2022/07/09 17:03:42;;;;;;;2.33;1.60;;;25.80;46.70;;;;;;5632123;25;20410;-82
2022/07/09 17:41:05;;;;;;;2.23;2.00;;;25.80;46.50;;;;;;5707362;25;20390;-83
2022/07/09 17:57:39;;;;;;;;;;;;;;;;;;;;;
2022/07/09 18:11:16;;;;;;;2.17;1.97;;;25.80;46.60;;;;;;5821141;24;20454;-82
2022/07/09 18:14:20;;;;;;;;;;;;;;;;;;;;;
2022/07/09 18:20:48;;;;;;;;;;;;;;;;;;;;;
2022/07/09 18:41:18;;;;;;;2.07;1.87;;;25.80;46.50;;;;;;5945949;24;20351;-82
2022/07/09 23:48:12;;;;;;;1.60;1.47;;;25.60;46.80;;;;;;6146478;23;20360;-82
2022/07/09 23:50:41;;;;;;;1.30;1.20;;;25.50;46.80;;;;;;6120792;23;20388;-82
2022/07/09 23:53:07;;;;;;;1.60;1.40;;;25.60;47.40;;;;;;6145694;23;20416;-82
2022/07/09 23:55:32;;;;;;;3.20;2.00;;;25.60;46.80;;;;;;6146516;23;20381;-82
2022/07/09 23:58:02;;;;;;;1.70;1.33;;;25.60;46.80;;;;;;6147124;23;20150;-82
